Flight Track Log - Related Links

Times and Time Zones

All times are in EST time to prevent confusion due to time zone crossing. See the EJA929 flight status page for this flight to view local times or setup timezone preferences in your user account.

Time Position Orientation Groundspeed Altitude Reporting Facility
EST Latitude Longitude Course Direction KTS MPH feet Rate Location/Type
Thu 01:55:25 PM 35.4061 -97.5883 12° North 188 216 2,200  Level Fort Worth Center
Thu 01:56:01 PM 35.4369 -97.5806 12° North 185 213 4,300 2,909 Climbing Fort Worth Center
Thu 01:57:04 PM 35.4789 -97.5247 47° Northeast 252 290 7,000 2,710 Climbing Fort Worth Center
Thu 01:58:05 PM 35.5169 -97.4333 63° Northeast 285 328 9,900 2,177 Climbing Fort Worth Center
Thu 01:59:08 PM 35.5561 -97.3408 62° Northeast 338 389 11,500 2,016 Climbing Fort Worth Center
Thu 02:00:10 PM 35.6156 -97.2000 63° Northeast 382 440 14,100 2,341 Climbing Fort Worth Center
Thu 02:01:11 PM 35.6675 -97.0764 63° Northeast 406 467 16,300 1,854 Climbing Fort Worth Center
Thu 02:02:13 PM 35.7206 -96.9489 63° Northeast 419 482 17,900 1,694 Climbing Fort Worth Center
Thu 02:03:15 PM 35.7750 -96.8181 63° Northeast 426 490 19,800 2,098 Climbing Fort Worth Center
Thu 02:04:16 PM 35.8322 -96.6806 63° Northeast 444 511 22,200 2,098 Climbing Fort Worth Center
Thu 02:05:18 PM 35.8914 -96.5397 63° Northeast 459 528 24,100 1,790 Climbing Fort Worth Center
Thu 02:06:20 PM 35.9542 -96.3906 62° Northeast 482 555 25,900 1,887 Climbing Fort Worth Center
Thu 02:07:22 PM 36.0231 -96.2164 64° Northeast 510 587 28,000 1,902 Climbing Fort Worth Center
Thu 02:08:23 PM 36.0878 -96.0569 63° Northeast 516 594 29,800 1,854 Climbing Fort Worth Center
Thu 02:09:25 PM 36.1542 -95.8942 63° Northeast 527 606 31,800 1,887 Climbing Fort Worth Center
Thu 02:10:27 PM 36.2236 -95.7308 62° Northeast 535 616 33,700 1,452 Climbing Fort Worth Center
Thu 02:11:29 PM 36.3028 -95.5692 59° Northeast 544 626 34,800 677 Climbing Fort Worth Center
Thu 02:12:31 PM 36.3903 -95.3881 59° Northeast 564 649 35,100 878 Climbing Fort Worth Center
Thu 02:13:32 PM 36.4764 -95.2064 59° Northeast 587 676 36,600 1,512 Climbing Fort Worth Center
Thu 02:14:34 PM 36.5564 -95.0386 59° Northeast 568 654 38,200 1,306 Climbing Fort Worth Center
Thu 02:15:36 PM 36.6356 -94.8714 59° Northeast 561 646 39,300 1,065 Climbing Fort Worth Center
Thu 02:16:38 PM 36.7150 -94.7056 59° Northeast 557 641 40,400 667 Climbing Fort Worth Center
Thu 02:18:09 PM 36.8428 -94.4375 59° Northeast 557 641 41,000 235 Climbing Kansas City Center
Thu 02:19:11 PM 36.9242 -94.2631 60° Northeast 573 659 41,000  Level Kansas City Center
Thu 02:20:13 PM 37.0069 -94.0844 60° Northeast 588 677 41,000  Level Kansas City Center
Thu 02:21:15 PM 37.0925 -93.9033 59° Northeast 598 688 41,000  Level Kansas City Center
Thu 02:22:16 PM 37.1800 -93.7094 60° Northeast 602 693 41,000  Level Kansas City Center
Thu 02:23:18 PM 37.2644 -93.5267 60° Northeast 604 695 41,000  Level Kansas City Center
Thu 02:24:20 PM 37.3686 -93.3103 59° Northeast 602 693 41,000  Level Kansas City Center
Thu 02:25:22 PM 37.4636 -93.1347 56° Northeast 605 696 41,000  Level Kansas City Center
Thu 02:26:24 PM 37.5606 -92.9644 54° Northeast 600 690 41,000  Level Kansas City Center
Thu 02:27:25 PM 37.6547 -92.7903 56° Northeast 599 689 41,000  Level Kansas City Center
Thu 02:28:27 PM 37.7397 -92.6300 56° Northeast 605 696 41,000  Level Kansas City Center
Thu 02:29:29 PM 37.8536 -92.4208 55° Northeast 603 694 41,000  Level Kansas City Center
Thu 02:30:31 PM 37.9492 -92.2436 56° Northeast 607 699 41,000  Level Kansas City Center
Thu 02:31:33 PM 38.0414 -92.0644 57° Northeast 598 688 41,000  Level Kansas City Center
Thu 02:32:34 PM 38.1356 -91.8878 56° Northeast 602 693 41,000  Level Kansas City Center
Thu 02:33:36 PM 38.2286 -91.7106 56° Northeast 601 692 41,000  Level Kansas City Center
Thu 02:34:38 PM 38.3219 -91.5319 56° Northeast 603 694 41,000  Level Kansas City Center
Thu 02:35:40 PM 38.4097 -91.3622 57° Northeast 601 692 41,000  Level Kansas City Center
Thu 02:36:41 PM 38.5203 -91.1494 56° Northeast 601 692 41,000  Level Kansas City Center
Thu 02:37:43 PM 38.6125 -90.9683 57° Northeast 605 696 41,000  Level Kansas City Center
Thu 02:38:45 PM 38.7028 -90.7861 58° Northeast 605 696 41,000  Level Kansas City Center
Thu 02:39:46 PM 38.7703 -90.5717 68° East 615 708 41,000  Level Kansas City Center
Thu 02:40:48 PM 38.8250 -90.3614 71° East 619 712 41,000  Level Kansas City Center
Thu 02:41:50 PM 38.8831 -90.1561 70° East 614 707 41,000  Level Kansas City Center
Thu 02:42:51 PM 38.9361 -89.9456 72° East 617 710 41,000  Level Kansas City Center
Thu 02:43:53 PM 38.9914 -89.7356 71° East 619 712 41,000  Level Kansas City Center
Thu 02:44:54 PM 39.0447 -89.5267 72° East 617 710 41,000  Level Kansas City Center
Thu 02:45:56 PM 39.0983 -89.3175 72° East 618 711 41,000  Level Kansas City Center
Thu 02:46:58 PM 39.1519 -89.1072 72° East 618 711 41,000  Level Kansas City Center
Thu 02:47:59 PM 39.2200 -88.8556 71° East 621 715 41,000  Level Kansas City Center
Thu 02:49:01 PM 39.2725 -88.6456 72° East 619 712 41,000  Level Kansas City Center
Thu 02:50:02 PM 39.3275 -88.4253 72° East 618 711 41,000  Level Kansas City Center
Thu 02:51:04 PM 39.3789 -88.2128 73° East 616 709 41,000  Level Kansas City Center
Thu 02:51:54 PM 39.4164 -88.0589 72° East 616 709 41,000  Level Indianapolis Center
Thu 02:52:55 PM 39.4669 -87.8478 73° East 616 709 41,000  Level Indianapolis Center
Thu 02:53:59 PM 39.5186 -87.6383 72° East 615 708 41,000  Level Indianapolis Center
Thu 02:55:00 PM 39.5786 -87.3836 73° East 618 711 41,000  Level Indianapolis Center
Thu 02:56:03 PM 39.6400 -87.1767 69° East 618 711 41,000  Level Indianapolis Center
Thu 02:57:03 PM 39.7114 -86.9744 65° Northeast 617 710 41,000  Level Indianapolis Center
Thu 02:57:31 PM 39.7389 -86.8939 66° East 617 710 41,000  Level Indianapolis Center
Thu 02:58:32 PM 39.8086 -86.6864 66° East 622 716 41,000  Level Indianapolis Center
Thu 02:59:33 PM 39.8789 -86.4792 66° East 621 715 41,000  Level Indianapolis Center
Thu 03:00:36 PM 39.9506 -86.2694 66° East 619 712 41,000  Level Indianapolis Center
Thu 03:01:37 PM 40.0211 -86.0603 66° East 622 716 41,000  Level Indianapolis Center
Thu 03:02:39 PM 40.1036 -85.8103 67° East 624 718 41,000  Level Indianapolis Center
Thu 03:03:42 PM 40.1722 -85.6008 67° East 627 722 41,000  Level Indianapolis Center
Thu 03:04:44 PM 40.2417 -85.3922 66° East 627 722 41,000  Level Indianapolis Center
Thu 03:05:44 PM 40.3086 -85.1825 67° East 628 723 41,000  Level Indianapolis Center
Thu 03:06:47 PM 40.3761 -84.9725 67° East 627 722 41,000  Level Indianapolis Center
Thu 03:07:51 PM 40.4497 -84.7425 67° East 627 722 41,000  Level Indianapolis Center
Thu 03:08:51 PM 40.5167 -84.5308 67° East 626 720 41,000  Level Indianapolis Center
Thu 03:09:55 PM 40.5833 -84.3178 68° East 628 723 41,000  Level Indianapolis Center
Thu 03:10:56 PM 40.6497 -84.1050 68° East 627 722 41,000  Level Indianapolis Center
Thu 03:11:57 PM 40.7169 -83.8925 67° East 627 722 41,000  Level Indianapolis Center
Thu 03:13:01 PM 40.7967 -83.6319 68° East 633 728 41,000  Level Indianapolis Center
Thu 03:14:01 PM 40.8622 -83.4119 68° East 630 725 41,000  Level Indianapolis Center
Thu 03:14:43 PM 40.8900 -83.2828 74° East 630 725 41,000  Level Cleveland Center
Thu 03:15:45 PM 40.9144 -83.0311 83° East 627 722 41,000  Level Cleveland Center
Thu 03:16:47 PM 40.9322 -82.7983 84° East 631 726 41,000  Level Cleveland Center
Thu 03:17:49 PM 40.9517 -82.5675 84° East 629 724 41,000  Level Cleveland Center
Thu 03:18:52 PM 40.9722 -82.2944 84° East 635 731 41,000  Level Cleveland Center
Thu 03:19:54 PM 40.9903 -82.0633 84° East 631 726 41,000  Level Cleveland Center
Thu 03:20:56 PM 41.0067 -81.8306 85° East 636 732 41,000  Level Cleveland Center
Thu 03:21:58 PM 41.0247 -81.6008 84° East 633 728 41,000  Level Cleveland Center
Thu 03:23:00 PM 41.0389 -81.3747 85° East 623 717 41,000  Level Cleveland Center
Thu 03:24:02 PM 41.0567 -81.1050 85° East 629 724 41,000  Level Cleveland Center
Thu 03:25:04 PM 41.0697 -80.8953 85° East 630 725 41,000  Level Cleveland Center
Thu 03:26:06 PM 41.0828 -80.6631 86° East 631 726 41,000  Level Cleveland Center
Thu 03:27:08 PM 41.0858 -80.3828 89° East 631 726 41,000  Level Cleveland Center
Thu 03:28:11 PM 41.0858 -80.1483 90° East 631 726 41,000  Level Cleveland Center
Thu 03:29:13 PM 41.0847 -79.9133 90° East 635 731 41,000 -339 Level Cleveland Center
Thu 03:30:15 PM 41.0828 -79.6803 91° East 633 728 40,300 -823 Descending Cleveland Center
Thu 03:31:17 PM 41.0814 -79.4447 90° East 636 732 39,300 -726 Descending Cleveland Center
Thu 03:32:19 PM 41.0786 -79.2100 91° East 636 732 38,800 -968 Descending Cleveland Center
Thu 03:33:21 PM 41.0775 -78.9722 90° East 641 738 37,300 -1,597 Descending Cleveland Center
Thu 03:34:23 PM 41.0725 -78.6817 91° East 654 753 35,500 -1,548 Descending Cleveland Center
Thu 03:35:25 PM 41.0669 -78.4408 92° East 656 755 34,100 -1,210 Descending Cleveland Center
Thu 03:36:27 PM 41.0636 -78.1847 91° East 652 750 33,000 -532 Descending Cleveland Center
Thu 03:37:29 PM 41.0589 -77.9447 91° East 656 755 33,000  Level Cleveland Center
Thu 03:38:19 PM 41.0553 -77.7578 91° East 669 770 33,000  Level New York Center
Thu 03:39:19 PM 41.0464 -77.5175 93° East 664 764 33,000  Level New York Center
Thu 03:40:19 PM 41.0397 -77.2636 92° East 649 747 33,000 -1,450 Level New York Center
Thu 03:41:19 PM 41.0333 -77.0347 92° East 629 724 30,100 -3,000 Descending New York Center
Thu 03:42:19 PM 41.0275 -76.8222 92° East 605 696 27,000 -2,950 Descending New York Center
Thu 03:43:19 PM 41.0375 -76.6222 86° East 552 635 24,200 -2,800 Descending New York Center
Thu 03:44:19 PM 41.0506 -76.4417 84° East 526 605 21,400 -2,450 Descending New York Center
Thu 03:45:19 PM 40.9800 -76.3039 124° Southeast 466 536 19,300 -1,750 Descending New York Center
Thu 03:46:19 PM 40.9064 -76.1825 129° Southeast 431 496 17,900 -1,700 Descending New York Center
Thu 03:47:19 PM 40.8675 -76.0286 108° East 438 504 15,900 -1,785 Descending New York Center
Thu 03:48:20 PM 40.8325 -75.8778 107° East 433 498 14,300 -1,450 Descending New York Center
Thu 03:49:19 PM 40.7967 -75.7381 109° East 421 484 13,000 -655 Descending New York Center
Thu 03:50:19 PM 40.7664 -75.6153 108° East 396 456 13,000  Level New York Center
Thu 03:51:19 PM 40.7303 -75.4758 109° East 391 450 13,000  Level New York Center
Thu 03:52:19 PM 40.6856 -75.3467 115° Southeast 397 457 13,000  Level New York Center
Thu 03:53:19 PM 40.6386 -75.2097 114° Southeast 383 441 13,000 -850 Level New York Center
Thu 03:54:19 PM 40.6025 -75.1117 116° Southeast 344 396 11,300 -1,488 Descending New York Center
Thu 03:55:20 PM 40.5633 -74.9917 113° Southeast 325 374 10,000 -650 Descending New York Center
Thu 03:56:19 PM 40.5333 -74.8917 112° Southeast 309 356 10,000  Level New York Center
Thu 03:57:19 PM 40.5036 -74.7889 111° Southeast 298 343 10,000  Level New York Center
Thu 03:58:19 PM 40.4694 -74.6858 114° Southeast 298 343 10,000  Level New York Center
Thu 03:59:19 PM 40.4375 -74.5831 112° Southeast 298 343 10,000 -300 Level New York Center
Thu 04:00:19 PM 40.4492 -74.4775 82° East 283 326 9,400 -950 Descending New York Center
Thu 04:01:19 PM 40.4667 -74.3828 76° East 289 333 8,100 -1,200 Descending New York Center
Thu 04:02:19 PM 40.4847 -74.2719 78° East 290 334 7,000 -550 Descending New York Center
Thu 04:03:19 PM 40.5000 -74.1800 78° East 290 334 7,000 -150 Level New York Center
Thu 04:04:19 PM 40.5297 -74.0886 67° East 254 292 6,700 -650 Descending New York Center
Thu 04:05:19 PM 40.5725 -74.0497 35° Northeast 218 251 5,700 -992 Descending New York Center
Thu 04:06:20 PM 40.6172 -74.0108 33° Northeast 185 213 4,700 -900 Descending New York Center
Thu 04:07:19 PM 40.6533 -73.9825 31° Northeast 173 199 3,900 -857 Descending New York Center
Thu 04:08:19 PM 40.6939 -73.9461 34° Northeast 168 193 3,000 -783 Descending New York Center
Thu 04:09:37 PM 40.7167 -73.8833 64° Northeast 160 184 2,100 -739 Descending New York TRACON
Thu 04:10:37 PM 40.7333 -73.8333 66° East 147 169 1,300 -850 Descending New York TRACON
Thu 04:11:37 PM 40.7667 -73.8333 360° North 129 148 400 -900 Descending New York TRACON
Thu 04:13:00 PM 40.6468 -74.2497 249° West  Level Estimated
Thu 04:20:00 PM 40.0174 -76.3334 249° West  Level Estimated
Thu 04:21:00 PM 39.9244 -76.6279 248° West  Level Estimated
Thu 04:22:00 PM 39.8308 -76.9216 248° West  Level Estimated
Thu 04:23:00 PM 39.7363 -77.2145 247° West  Level Estimated
Thu 04:24:00 PM 39.6412 -77.5066 247° West  Level Estimated
Thu 04:25:00 PM 39.5453 -77.7979 247° West  Level Estimated
Thu 04:26:00 PM 39.4487 -78.0883 247° West  Level Estimated
Thu 04:27:00 PM 39.3514 -78.3780 247° West  Level Estimated
Thu 04:28:00 PM 39.2533 -78.6668 246° West  Level Estimated
Thu 04:29:00 PM 39.1546 -78.9549 246° West  Level Estimated
Thu 04:30:00 PM 39.0551 -79.2421 246° West  Level Estimated
Thu 04:31:00 PM 38.9549 -79.5285 246° West  Level Estimated
Thu 04:32:00 PM 38.8541 -79.8141 246° West  Level Estimated
Thu 04:33:00 PM 38.7525 -80.0989 246° West  Level Estimated
Thu 04:34:00 PM 38.6503 -80.3829 245° Southwest  Level Estimated
Thu 04:35:00 PM 38.5474 -80.6661 245° Southwest  Level Estimated
Thu 04:36:00 PM 38.4437 -80.9485 245° Southwest  Level Estimated
Thu 04:37:00 PM 38.3395 -81.2300 245° Southwest  Level Estimated
Thu 04:38:00 PM 38.2345 -81.5108 245° Southwest  Level Estimated
Thu 04:39:00 PM 38.1289 -81.7907 244° Southwest  Level Estimated
Thu 04:40:00 PM 38.0226 -82.0698 244° Southwest  Level Estimated
Thu 04:41:00 PM 37.9156 -82.3481 244° Southwest  Level Estimated
Thu 04:42:00 PM 37.8080 -82.6256 244° Southwest  Level Estimated
Thu 04:43:00 PM 37.6998 -82.9023 244° Southwest  Level Estimated
Thu 04:44:00 PM 37.5909 -83.1782 244° Southwest  Level Estimated
Thu 04:45:00 PM 37.4814 -83.4532 243° Southwest  Level Estimated
Thu 04:46:00 PM 37.3712 -83.7275 243° Southwest  Level Estimated
Thu 04:47:00 PM 37.2604 -84.0009 243° Southwest  Level Estimated
Thu 04:48:00 PM 37.1490 -84.2736 243° Southwest  Level Estimated
Thu 04:49:00 PM 37.0369 -84.5454 243° Southwest  Level Estimated
Thu 04:50:00 PM 36.9243 -84.8165 243° Southwest  Level Estimated
Thu 04:51:00 PM 36.8110 -85.0867 242° Southwest  Level Estimated
Thu 04:52:00 PM 36.6971 -85.3561 242° Southwest  Level Estimated
Thu 04:53:00 PM 36.5826 -85.6248 242° Southwest  Level Estimated
Thu 04:54:00 PM 36.4675 -85.8926 242° Southwest  Level Estimated
Thu 04:55:00 PM 36.3518 -86.1597 242° Southwest  Level Estimated
Thu 04:56:00 PM 36.2355 -86.4259 242° Southwest  Level Estimated
Thu 04:57:00 PM 36.1245 -86.6782 241° Southwest  Level Estimated
Thu 04:58:00 PM 36.1245 -86.6782 302° West  Level Estimated
Thu 04:59:00 PM 36.1245 -86.6782 302° West  Level Estimated
Thu 05:00:00 PM 36.1245 -86.6782 302° West  Level Estimated
Thu 05:01:00 PM 36.1245 -86.6782 302° West  Level Estimated
Thu 05:02:00 PM 36.1245 -86.6782 302° West  Level Estimated
Thu 05:03:00 PM 36.1245 -86.6782 302° West  Level Estimated
Thu 05:04:00 PM 36.1245 -86.6782 302° West  Level Estimated
Thu 05:05:00 PM 36.1245 -86.6782 302° West  Level Estimated
Thu 05:06:00 PM 36.1245 -86.6782 302° West  Level Estimated
Thu 05:07:00 PM 36.1245 -86.6782 302° West  Level Estimated
Thu 05:08:00 PM 36.1245 -86.6782 302° West  Level Estimated
Thu 05:09:00 PM 36.1245 -86.6782 302° West  Level Estimated
Thu 05:10:00 PM 36.1245 -86.6782 302° West  Level Estimated
Thu 05:11:00 PM 36.1245 -86.6782 302° West  Level Estimated
Thu 05:12:00 PM 36.1245 -86.6782 302° West  Level Estimated
Thu 05:13:00 PM 36.1245 -86.6782 302° West  Level Estimated
Thu 05:14:00 PM 36.1245 -86.6782 302° West  Level Estimated
Thu 05:15:00 PM 36.1245 -86.6782 302° West  Level Estimated
Thu 05:16:00 PM 36.1245 -86.6782 302° West  Level Estimated
Thu 05:17:00 PM 36.1245 -86.6782 302° West  Level Estimated
Thu 05:18:00 PM 36.1245 -86.6782 302° West  Level Estimated
Thu 05:19:00 PM 36.1245 -86.6782 302° West  Level Estimated
Thu 05:20:00 PM 36.1245 -86.6782 302° West  Level Estimated
Thu 05:21:00 PM 36.1245 -86.6782 302° West  Level Estimated
Thu 05:22:00 PM 36.1245 -86.6782 302° West  Level Estimated
Thu 05:23:00 PM 36.1245 -86.6782 302° West  Level Estimated
Thu 05:24:00 PM 36.1245 -86.6782 302° West  Level Estimated
Thu 05:25:00 PM 36.1245 -86.6782 302° West  Level Estimated
Thu 05:26:00 PM 36.1245 -86.6782 302° West  Level Estimated
Thu 05:27:00 PM 36.1245 -86.6782 302° West  Level Estimated
Thu 05:28:00 PM 36.1245 -86.6782 302° West  Level Estimated
Thu 05:29:00 PM 36.1245 -86.6782 302° West  Level Estimated
Thu 05:30:00 PM 36.1245 -86.6782 302° West  Level Estimated
Thu 05:31:00 PM 36.1245 -86.6782 302° West  Level Estimated
Thu 05:32:00 PM 36.1245 -86.6782 302° West  Level Estimated
Thu 05:33:00 PM 36.1245 -86.6782 302° West  Level Estimated
Thu 05:34:00 PM 36.1245 -86.6782 302° West  Level Estimated
Thu 05:35:00 PM 36.1245 -86.6782 302° West  Level Estimated
Thu 05:36:00 PM 36.1245 -86.6782 302° West  Level Estimated
Thu 05:37:00 PM 36.1245 -86.6782 302° West  Level Estimated
Thu 05:38:00 PM 36.1245 -86.6782 302° West  Level Estimated
Thu 05:39:00 PM 36.1245 -86.6782 302° West  Level Estimated
Thu 05:40:00 PM 36.1245 -86.6782 302° West  Level Estimated
Thu 05:41:00 PM 36.1245 -86.6782 302° West  Level Estimated
Thu 05:42:00 PM 36.1245 -86.6782 302° West  Level Estimated
Thu 05:43:00 PM 36.1245 -86.6782 302° West  Level Estimated
Thu 05:44:00 PM 36.1245 -86.6782 302° West  Level Estimated
Thu 05:45:00 PM 36.1245 -86.6782 302° West  Level Estimated
Thu 05:46:00 PM 36.1245 -86.6782 302° West  Level Estimated
Thu 05:47:00 PM 36.1245 -86.6782 302° West  Level Estimated
Thu 05:48:00 PM 36.1245 -86.6782 302° West  Level Estimated
Thu 05:49:00 PM 36.1245 -86.6782 302° West  Level Estimated
Thu 05:50:00 PM 36.1245 -86.6782 302° West  Level Estimated
Thu 05:51:00 PM 36.1245 -86.6782 302° West  Level Estimated
Thu 05:52:00 PM 36.1245 -86.6782 302° West  Level Estimated
Thu 05:53:00 PM 36.1245 -86.6782 302° West  Level Estimated
Thu 05:54:00 PM 36.1245 -86.6782 302° West  Level Estimated
Thu 05:55:00 PM 36.1245 -86.6782 302° West  Level Estimated
Thu 05:56:00 PM 36.1245 -86.6782 302° West  Level Estimated
Thu 05:57:00 PM 36.1245 -86.6782 302° West  Level Estimated
Thu 05:58:00 PM 36.1245 -86.6782 302° West  Level Estimated
Thu 05:59:00 PM 36.1245 -86.6782 302° West  Level Estimated
Thu 06:00:00 PM 36.1245 -86.6782 302° West  Level Estimated
Thu 06:01:00 PM 36.1245 -86.6782 302° West  Level Estimated
Thu 06:02:00 PM 36.1245 -86.6782 302° West  Level Estimated
Thu 06:03:00 PM 36.1245 -86.6782 302° West  Level Estimated
Thu 06:04:00 PM 36.1245 -86.6782 302° West  Level Estimated
Thu 06:05:00 PM 36.1245 -86.6782 302° West  Level Estimated
Thu 06:06:00 PM 36.1245 -86.6782 302° West  Level Estimated
Thu 06:07:00 PM 36.1245 -86.6782 302° West  Level Estimated
Thu 06:08:00 PM 36.1245 -86.6782 302° West  Level Estimated
Thu 06:09:00 PM 36.1245 -86.6782 302° West  Level Estimated
Thu 06:10:00 PM 36.1245 -86.6782 302° West  Level Estimated
Thu 06:11:00 PM 36.1245 -86.6782 302° West  Level Estimated
Thu 06:12:00 PM 36.1245 -86.6782 302° West  Level Estimated
Thu 06:13:00 PM 36.1245 -86.6782 302° West  Level Estimated
Thu 06:14:00 PM 36.1245 -86.6782 302° West  Level Estimated
Thu 06:15:00 PM 36.1245 -86.6782 302° West  Level Estimated
Thu 06:16:00 PM 36.1245 -86.6782 302° West  Level Estimated
Thu 06:17:00 PM 36.1245 -86.6782 302° West  Level Estimated
Thu 06:18:00 PM 36.1245 -86.6782 302° West  Level Estimated

Login

Don't have an account? Register now (free) for customized features, flight alerts, and more!